createdAt,value
2023-02-01T00:01:13.246Z,-23.00
2023-02-01T00:06:17.144Z,-22.94
2023-02-01T00:11:20.877Z,-22.93
2023-02-01T00:16:28.648Z,-22.82
2023-02-01T00:21:33.276Z,-22.89
2023-02-01T00:26:43.287Z,-22.86
2023-02-01T00:31:47.824Z,-22.95
2023-02-01T00:36:51.978Z,-22.84
2023-02-01T00:41:55.910Z,-22.83
2023-02-01T00:46:59.795Z,-22.82
2023-02-01T00:52:03.551Z,-22.78
2023-02-01T00:57:07.629Z,-22.73
2023-02-01T01:02:14.270Z,-22.73
2023-02-01T01:07:18.112Z,-22.72
2023-02-01T01:12:22.897Z,-22.71
2023-02-01T01:17:26.871Z,-22.67
2023-02-01T01:22:30.814Z,-22.64
2023-02-01T01:27:34.710Z,-22.93
2023-02-01T01:32:38.615Z,-22.52
2023-02-01T01:37:42.314Z,-22.48
2023-02-01T01:42:46.532Z,-22.39
2023-02-01T01:47:58.058Z,-22.31
2023-02-01T01:53:08.176Z,-22.62
2023-02-01T01:58:17.334Z,-22.31
2023-02-01T02:03:35.013Z,-22.29
2023-02-01T02:08:39.427Z,-22.27
2023-02-01T02:13:52.316Z,-22.31
2023-02-01T02:18:56.097Z,-22.33
2023-02-01T02:24:45.708Z,-22.30
2023-02-01T02:30:08.426Z,-22.22
2023-02-01T02:35:12.036Z,-22.11
2023-02-01T02:40:15.856Z,-22.06
2023-02-01T02:45:50.076Z,-21.92
2023-02-01T02:51:22.245Z,-21.83
2023-02-01T02:56:47.391Z,-21.81
2023-02-01T03:17:46.521Z,-22.03
2023-02-01T03:22:53.095Z,-21.63
2023-02-01T03:28:06.763Z,-21.20
2023-02-01T03:33:25.564Z,-20.99
2023-02-01T03:38:48.093Z,-20.57
2023-02-01T03:44:19.537Z,-20.47
2023-02-01T03:49:45.830Z,-20.48
2023-02-01T03:54:51.527Z,-19.98
2023-02-01T03:59:55.565Z,-19.76
2023-02-01T04:04:59.495Z,-19.59
2023-02-01T04:10:05.174Z,-19.47
2023-02-01T04:15:10.083Z,-19.33
2023-02-01T04:20:13.894Z,-19.21
2023-02-01T04:25:19.780Z,-19.00
2023-02-01T04:30:25.689Z,-18.73
2023-02-01T04:35:29.966Z,-18.41
2023-02-01T04:40:33.693Z,-18.18
2023-02-01T04:45:37.619Z,-18.09
2023-02-01T04:50:41.321Z,-17.82
2023-02-01T04:55:45.818Z,-17.76
2023-02-01T05:00:50.157Z,-17.43
2023-02-01T05:05:55.357Z,-17.28
2023-02-01T05:11:00.788Z,-17.11
2023-02-01T05:16:04.865Z,-16.94
2023-02-01T05:21:08.920Z,-16.78
2023-02-01T05:26:12.731Z,-16.66
2023-02-01T05:31:17.388Z,-16.53
2023-02-01T05:36:21.425Z,-16.42
2023-02-01T05:41:25.826Z,-16.28
2023-02-01T05:46:29.992Z,-16.16
2023-02-01T05:51:35.176Z,-16.08
2023-02-01T05:56:39.277Z,-15.97
2023-02-01T06:01:43.172Z,-15.92
2023-02-01T06:06:47.177Z,-15.69
2023-02-01T06:11:51.009Z,-15.53
2023-02-01T06:16:56.289Z,-15.48
2023-02-01T06:22:00.196Z,-15.31
2023-02-01T06:27:04.109Z,-15.18
2023-02-01T06:32:08.277Z,-15.06
2023-02-01T06:37:12.822Z,-15.01
2023-02-01T06:42:17.154Z,-15.01
2023-02-01T06:47:21.167Z,-14.74
2023-02-01T06:52:24.936Z,-14.75
2023-02-01T06:57:32.212Z,-14.52
2023-02-01T07:02:35.666Z,-14.46
2023-02-01T07:07:39.610Z,-14.40
2023-02-01T07:12:43.407Z,-14.33
2023-02-01T07:17:48.675Z,-14.37
2023-02-01T07:22:58.603Z,-14.19
2023-02-01T07:28:02.753Z,-14.11
2023-02-01T07:33:09.122Z,-14.07
2023-02-01T07:38:12.808Z,-14.04
2023-02-01T07:43:16.663Z,-13.92
2023-02-01T07:48:21.217Z,-13.85
2023-02-01T07:53:25.131Z,-13.79
2023-02-01T07:58:29.654Z,-13.69
2023-02-01T08:03:33.477Z,-13.66
2023-02-01T08:08:37.507Z,-13.59
2023-02-01T08:13:41.990Z,-13.48
2023-02-01T08:31:09.809Z,-13.51
2023-02-01T08:36:13.809Z,-13.55
2023-02-01T08:41:24.369Z,-13.44
2023-02-01T08:46:28.917Z,-13.38
2023-02-01T08:51:32.876Z,-13.64
2023-02-01T08:56:36.931Z,-13.24
2023-02-01T09:01:40.981Z,-13.22
2023-02-01T09:06:44.675Z,-13.18
2023-02-01T09:11:48.575Z,-13.13
2023-02-01T09:16:52.364Z,-13.20
2023-02-01T09:21:56.492Z,-13.13
2023-02-01T09:27:00.529Z,-13.07
2023-02-01T09:32:05.292Z,-13.07
2023-02-01T09:37:11.296Z,-13.06
2023-02-01T09:42:32.892Z,-12.83
2023-02-01T09:47:38.846Z,-12.83
2023-02-01T09:52:52.678Z,-12.99
2023-02-01T09:58:03.265Z,-13.14
2023-02-01T10:03:12.882Z,-13.30
2023-02-01T10:08:50.618Z,-13.29
2023-02-01T10:13:57.319Z,-13.43
2023-02-01T10:19:35.449Z,-13.55
2023-02-01T10:24:54.663Z,-13.74
2023-02-01T10:30:05.971Z,-13.91
2023-02-01T10:35:18.882Z,-13.91
2023-02-01T10:40:28.514Z,-14.22
2023-02-01T10:45:35.038Z,-14.28
2023-02-01T10:51:00.650Z,-14.41
2023-02-01T10:56:15.251Z,-14.64
2023-02-01T11:01:39.614Z,-14.75
2023-02-01T11:06:49.615Z,-14.90
2023-02-01T11:11:53.473Z,-15.10
2023-02-01T11:17:01.832Z,-15.31
2023-02-01T11:22:07.336Z,-15.42
2023-02-01T11:27:27.421Z,-15.75
2023-02-01T11:32:32.921Z,-15.82
2023-02-01T11:37:40.509Z,-15.93
2023-02-01T11:43:01.509Z,-16.10
2023-02-01T11:48:18.034Z,-16.23
2023-02-01T11:53:54.640Z,-16.51
2023-02-01T11:59:17.923Z,-16.75
2023-02-01T12:04:30.642Z,-16.83
2023-02-01T12:10:04.488Z,-16.94
2023-02-01T12:15:49.373Z,-17.30
2023-02-01T12:21:29.389Z,-17.40
2023-02-01T12:26:46.506Z,-17.48
2023-02-01T12:31:50.455Z,-17.75
2023-02-01T12:36:57.219Z,-17.80
2023-02-01T12:42:26.668Z,-17.91
2023-02-01T12:47:37.338Z,-18.17
2023-02-01T12:52:51.144Z,-18.34
2023-02-01T12:58:21.505Z,-18.28
2023-02-01T13:03:43.490Z,-18.31
2023-02-01T13:08:50.072Z,-18.49
2023-02-01T13:14:13.752Z,-18.74
2023-02-01T13:19:30.866Z,-18.97
2023-02-01T13:24:49.591Z,-19.09
2023-02-01T13:30:00.220Z,-19.17
2023-02-01T13:35:22.885Z,-19.03
2023-02-01T13:40:35.864Z,-19.14
2023-02-01T13:45:52.804Z,-19.34
2023-02-01T13:50:59.534Z,-19.49
2023-02-01T13:56:13.755Z,-19.61
2023-02-01T14:01:23.638Z,-19.68
2023-02-01T14:06:35.418Z,-19.87
2023-02-01T14:11:41.249Z,-20.08
2023-02-01T14:17:06.196Z,-20.06
2023-02-01T14:22:22.240Z,-20.04
2023-02-01T14:27:31.206Z,-20.05
2023-02-01T14:32:48.272Z,-20.33
2023-02-01T14:38:01.777Z,-20.47
2023-02-01T14:43:05.646Z,-20.60
2023-02-01T14:48:09.700Z,-20.67
2023-02-01T14:53:13.940Z,-20.69
2023-02-01T14:58:39.888Z,-20.71
2023-02-01T15:03:52.720Z,-20.95
2023-02-01T15:09:17.835Z,-21.14
2023-02-01T15:14:22.128Z,-21.29
2023-02-01T15:19:28.814Z,-21.45
2023-02-01T15:24:33.651Z,-21.34
2023-02-01T15:29:37.775Z,-21.31
2023-02-01T15:34:52.347Z,-22.11
2023-02-01T15:40:25.791Z,-21.65
2023-02-01T15:45:35.153Z,-21.81
2023-02-01T15:50:42.577Z,-21.92
2023-02-01T15:55:48.476Z,-21.98
2023-02-01T16:01:01.788Z,-21.97
2023-02-01T16:06:14.646Z,-22.04
2023-02-01T16:11:32.288Z,-22.10
2023-02-01T16:16:35.984Z,-22.12
2023-02-01T16:21:40.196Z,-22.23
2023-02-01T16:26:44.745Z,-22.22
2023-02-01T16:31:52.047Z,-22.34
2023-02-01T16:36:58.726Z,-22.47
2023-02-01T16:42:04.328Z,-22.53
2023-02-01T16:47:20.055Z,-22.64
2023-02-01T16:52:28.792Z,-22.83
2023-02-01T16:57:32.619Z,-22.78
2023-02-01T17:02:36.648Z,-23.19
2023-02-01T17:07:42.239Z,-22.84
2023-02-01T17:12:46.006Z,-22.81
2023-02-01T17:17:55.871Z,-22.86
2023-02-01T17:23:00.382Z,-22.89
2023-02-01T17:28:04.320Z,-22.86
2023-02-01T17:33:36.429Z,-22.96
2023-02-01T17:38:40.804Z,-23.01
2023-02-01T17:43:44.565Z,-23.06
2023-02-01T17:48:48.429Z,-23.40
2023-02-01T17:53:52.250Z,-23.19
2023-02-01T17:58:56.951Z,-23.28
2023-02-01T18:04:00.913Z,-23.20
2023-02-01T18:09:04.869Z,-23.10
2023-02-01T18:14:14.260Z,-23.08
2023-02-01T18:19:18.046Z,-23.34
2023-02-01T18:24:24.311Z,-23.41
2023-02-01T18:29:28.144Z,-23.47
2023-02-01T18:34:32.259Z,-23.52
2023-02-01T18:39:36.073Z,-23.55
2023-02-01T18:44:40.024Z,-23.52
2023-02-01T18:49:43.849Z,-23.54
2023-02-01T18:54:59.162Z,-23.71
2023-02-01T19:00:04.488Z,-23.78
2023-02-01T19:05:11.138Z,-23.87
2023-02-01T19:10:19.067Z,-23.90
2023-02-01T19:15:23.217Z,-24.18
2023-02-01T19:20:28.569Z,-24.04
2023-02-01T19:25:32.450Z,-24.06
2023-02-01T19:30:36.926Z,-24.26
2023-02-01T19:35:41.367Z,-24.19
2023-02-01T19:40:45.403Z,-24.30
2023-02-01T19:45:49.291Z,-24.98
2023-02-01T19:50:53.080Z,-24.46
2023-02-01T19:56:02.479Z,-24.48
2023-02-01T20:01:06.734Z,-24.91
2023-02-01T20:06:10.693Z,-24.44
2023-02-01T20:11:14.707Z,-24.43
2023-02-01T20:16:18.755Z,-24.65
2023-02-01T20:21:25.584Z,-24.40
2023-02-01T20:26:31.351Z,-24.59
2023-02-01T20:31:35.334Z,-24.52
2023-02-01T20:36:40.093Z,-25.02
2023-02-01T20:41:44.474Z,-24.59
2023-02-01T20:46:48.530Z,-24.65
2023-02-01T20:51:52.531Z,-24.74
2023-02-01T20:56:56.289Z,-24.77
2023-02-01T21:02:01.021Z,-24.75
2023-02-01T21:07:04.877Z,-24.71
2023-02-01T21:12:10.407Z,-24.79
2023-02-01T21:17:14.380Z,-24.79
2023-02-01T21:22:18.213Z,-24.86
2023-02-01T21:27:22.920Z,-25.46
2023-02-01T21:32:27.012Z,-25.02
2023-02-01T21:37:31.600Z,-25.05
2023-02-01T21:42:35.680Z,-25.03
2023-02-01T21:47:39.875Z,-25.07
2023-02-01T21:52:43.885Z,-25.13
2023-02-01T21:57:48.572Z,-25.15
2023-02-01T22:02:52.617Z,-25.73
2023-02-01T22:07:56.553Z,-25.48
2023-02-01T22:13:00.390Z,-25.10
2023-02-01T22:18:04.319Z,-25.08
2023-02-01T22:23:08.208Z,-25.06
2023-02-01T22:28:30.604Z,-25.12
2023-02-01T22:33:36.703Z,-25.17
2023-02-01T22:38:40.729Z,-25.20
2023-02-01T22:43:45.330Z,-25.31
2023-02-01T22:48:51.443Z,-25.42
2023-02-01T22:53:58.622Z,-25.68
2023-02-01T22:59:05.616Z,-25.59
2023-02-01T23:04:15.199Z,-25.60
2023-02-01T23:09:26.045Z,-25.62
2023-02-01T23:14:30.064Z,-25.63
2023-02-01T23:19:33.840Z,-25.62
2023-02-01T23:24:37.706Z,-25.63
2023-02-01T23:29:41.655Z,-26.30
2023-02-01T23:34:45.464Z,-26.19
2023-02-01T23:39:49.543Z,-25.52
2023-02-01T23:44:53.343Z,-25.47
2023-02-01T23:49:57.366Z,-25.60
2023-02-01T23:55:01.320Z,-25.47
